Time;durP1;ratioP1;P1;durP2;ratioP2;P2;SDS_P1;SDS_P2;PMS_P1;PMS_P2;Temp;Humidity;BMP_temperature;BMP_pressure;BME280_temperature;BME280_humidity;BME280_pressure;Samples;Min_cycle;Max_cycle;Signal;HPM_P1;HPM_P2
2023/06/19 00:00:27;;;;;;;12.35;7.05;;;23.30;99.90;;;;;;4952266;28;20422;-80
2023/06/19 00:02:53;;;;;;;11.43;5.97;;;23.40;99.90;;;;;;4952197;28;20397;-80
2023/06/19 00:05:18;;;;;;;13.60;7.20;;;23.40;99.90;;;;;;4958046;28;20418;-80
2023/06/19 00:07:44;;;;;;;12.63;6.05;;;23.40;99.90;;;;;;4973283;28;20404;-80
2023/06/19 00:10:09;;;;;;;13.97;6.60;;;23.30;99.90;;;;;;4975145;28;20404;-79
2023/06/19 00:12:36;;;;;;;13.67;6.50;;;23.30;99.90;;;;;;4975079;28;20407;-79
2023/06/19 00:15:02;;;;;;;11.53;6.87;;;23.20;99.90;;;;;;4975175;28;20415;-79
2023/06/19 00:17:28;;;;;;;13.30;6.80;;;23.20;99.90;;;;;;4975068;28;20487;-79
2023/06/19 00:19:53;;;;;;;14.13;6.70;;;23.20;99.90;;;;;;4975440;28;20865;-79
2023/06/19 00:22:19;;;;;;;13.07;7.20;;;23.20;99.90;;;;;;4974732;28;20829;-81
2023/06/19 00:24:45;;;;;;;13.98;6.93;;;23.20;99.90;;;;;;4976669;28;20436;-80
2023/06/19 00:27:11;;;;;;;13.67;6.60;;;23.20;99.90;;;;;;4976218;28;20464;-80
2023/06/19 00:29:36;;;;;;;12.60;6.63;;;23.20;99.90;;;;;;4975980;28;20420;-80
2023/06/19 00:32:02;;;;;;;12.60;7.30;;;23.20;99.90;;;;;;4975694;28;20470;-80
2023/06/19 00:34:29;;;;;;;14.07;7.30;;;23.20;99.90;;;;;;4975364;28;20396;-80
2023/06/19 00:36:56;;;;;;;12.52;6.97;;;23.20;99.90;;;;;;4976880;28;20455;-80
2023/06/19 00:39:22;;;;;;;15.80;7.20;;;23.20;99.90;;;;;;4975280;28;20420;-79
2023/06/19 00:41:48;;;;;;;13.05;7.25;;;23.30;99.90;;;;;;4974121;28;20400;-80
2023/06/19 00:44:14;;;;;;;12.65;6.70;;;23.20;99.90;;;;;;4974635;28;20479;-80
2023/06/19 00:46:41;;;;;;;11.30;6.70;;;23.10;99.90;;;;;;4975080;28;20543;-80
2023/06/19 00:49:07;;;;;;;12.73;6.95;;;23.10;99.90;;;;;;4975570;28;20913;-80
2023/06/19 00:51:33;;;;;;;13.70;7.30;;;23.00;99.90;;;;;;4975731;28;20393;-80
2023/06/19 00:53:59;;;;;;;13.60;6.90;;;22.90;99.90;;;;;;4975677;28;20483;-80
2023/06/19 00:56:24;;;;;;;11.30;6.40;;;22.70;99.90;;;;;;4976242;28;20466;-80
2023/06/19 00:58:52;;;;;;;15.30;7.28;;;22.60;99.90;;;;;;4975223;28;20802;-81
2023/06/19 01:01:19;;;;;;;12.63;6.47;;;22.60;99.90;;;;;;4975076;28;20432;-80
2023/06/19 01:03:44;;;;;;;12.55;7.18;;;22.70;99.90;;;;;;4972844;28;20482;-81
2023/06/19 01:06:15;;;;;;;14.10;6.30;;;22.60;99.90;;;;;;4976695;28;20440;-80
2023/06/19 01:08:44;;;;;;;11.93;5.95;;;22.40;99.90;;;;;;4977094;28;20396;-80
2023/06/19 01:11:13;;;;;;;12.90;5.70;;;22.80;99.90;;;;;;4976737;28;20396;-80
2023/06/19 01:13:47;;;;;;;11.55;5.35;;;23.10;99.90;;;;;;4974568;28;20396;-80
2023/06/19 01:16:14;;;;;;;14.50;6.10;;;23.30;99.90;;;;;;4975062;28;20396;-80
2023/06/19 01:18:40;;;;;;;11.43;6.10;;;23.50;99.90;;;;;;4973954;28;20412;-80
2023/06/19 01:21:18;;;;;;;11.70;4.28;;;23.60;99.90;;;;;;4974153;28;20439;-80
2023/06/19 01:23:44;;;;;;;9.50;4.40;;;23.50;99.90;;;;;;4975149;28;20391;-80
2023/06/19 01:26:11;;;;;;;10.77;4.37;;;23.50;99.90;;;;;;4974362;28;20483;-80
2023/06/19 01:28:38;;;;;;;10.30;3.90;;;23.60;99.90;;;;;;4975314;28;20773;-80
2023/06/19 01:31:25;;;;;;;10.27;4.10;;;23.70;99.90;;;;;;4982916;28;20456;-80
2023/06/19 01:33:53;;;;;;;9.07;3.42;;;23.70;99.90;;;;;;4977705;28;20516;-80
2023/06/19 01:36:21;;;;;;;7.40;2.90;;;23.70;99.90;;;;;;4973422;28;21192;-80
2023/06/19 01:38:48;;;;;;;8.82;2.60;;;23.60;99.90;;;;;;4973949;28;20404;-80
2023/06/19 01:41:30;;;;;;;8.52;3.40;;;23.60;99.90;;;;;;4974337;28;20460;-80
2023/06/19 01:43:56;;;;;;;8.10;3.30;;;23.60;99.90;;;;;;4975470;28;20404;-80
2023/06/19 01:46:22;;;;;;;10.45;3.40;;;23.70;99.90;;;;;;4974587;28;20401;-80
2023/06/19 01:48:47;;;;;;;7.93;3.60;;;23.70;99.90;;;;;;4975064;28;20396;-80
2023/06/19 01:51:13;;;;;;;9.80;3.80;;;23.70;99.90;;;;;;4974525;28;20423;-80
2023/06/19 01:53:38;;;;;;;8.40;3.43;;;23.80;99.90;;;;;;4974449;28;20400;-79
2023/06/19 01:56:04;;;;;;;9.73;4.33;;;23.80;99.90;;;;;;4956775;28;20787;-80
2023/06/19 01:58:30;;;;;;;8.37;3.50;;;23.70;99.90;;;;;;4955779;29;20413;-80
2023/06/19 02:00:55;;;;;;;12.67;3.83;;;23.60;99.90;;;;;;4955227;28;20452;-80
2023/06/19 02:03:21;;;;;;;10.20;4.60;;;23.60;99.90;;;;;;4954329;29;20502;-80
2023/06/19 02:05:47;;;;;;;10.60;4.60;;;23.70;99.90;;;;;;4954837;28;21354;-80
2023/06/19 02:08:13;;;;;;;9.52;4.20;;;23.60;99.90;;;;;;4954844;29;20396;-80
2023/06/19 02:10:38;;;;;;;8.70;4.00;;;23.50;99.90;;;;;;4954186;29;20856;-80
2023/06/19 02:13:04;;;;;;;9.10;4.20;;;23.50;99.90;;;;;;4955015;28;20749;-80
2023/06/19 02:15:29;;;;;;;8.60;4.00;;;23.50;99.90;;;;;;4954623;29;20493;-80
2023/06/19 02:17:55;;;;;;;8.83;3.70;;;23.40;99.90;;;;;;4954658;29;20926;-80
2023/06/19 02:20:24;;;;;;;8.57;4.13;;;23.30;99.90;;;;;;4954032;29;20509;-80
2023/06/19 02:22:50;;;;;;;9.10;4.07;;;23.30;99.90;;;;;;4953074;29;20441;-80
2023/06/19 02:25:15;;;;;;;9.40;3.95;;;23.30;99.90;;;;;;4960708;28;20838;-79
2023/06/19 02:27:41;;;;;;;8.85;3.67;;;23.40;99.90;;;;;;4971954;28;20400;-79
2023/06/19 02:30:07;;;;;;;9.50;3.85;;;23.50;99.90;;;;;;4963495;28;20905;-79
2023/06/19 02:32:32;;;;;;;9.43;4.13;;;23.50;99.90;;;;;;4972046;28;20403;-79
2023/06/19 02:34:58;;;;;;;9.60;4.10;;;23.50;99.90;;;;;;4972221;28;20408;-79
2023/06/19 02:37:24;;;;;;;8.43;4.00;;;23.50;99.90;;;;;;4972035;28;20881;-79
2023/06/19 02:39:49;;;;;;;9.45;4.32;;;23.50;99.90;;;;;;4971368;28;20436;-79
2023/06/19 02:42:15;;;;;;;8.13;3.93;;;23.40;99.90;;;;;;4971003;28;20392;-80
2023/06/19 02:44:42;;;;;;;9.00;4.30;;;23.30;99.90;;;;;;4971001;28;20408;-80
2023/06/19 02:47:07;;;;;;;9.17;3.60;;;23.30;99.90;;;;;;4970261;28;20463;-80
2023/06/19 02:49:33;;;;;;;8.40;3.57;;;23.20;99.90;;;;;;4970685;28;20475;-80
2023/06/19 02:51:58;;;;;;;8.93;3.50;;;23.20;99.90;;;;;;4970083;28;20479;-80
2023/06/19 02:54:24;;;;;;;7.77;3.33;;;23.20;99.90;;;;;;4971483;28;20415;-79
2023/06/19 02:56:49;;;;;;;8.50;3.80;;;23.10;99.90;;;;;;4971077;28;20396;-79
2023/06/19 02:59:15;;;;;;;9.57;3.13;;;23.10;99.90;;;;;;4971504;28;20459;-80
2023/06/19 03:01:40;;;;;;;8.73;3.70;;;23.10;99.90;;;;;;4973509;28;20420;-80
2023/06/19 03:04:06;;;;;;;8.40;3.30;;;23.10;99.90;;;;;;4972660;28;20899;-80
2023/06/19 03:06:38;;;;;;;7.80;3.40;;;23.10;99.90;;;;;;4971846;28;20396;-80
2023/06/19 03:09:05;;;;;;;8.27;3.60;;;23.00;99.90;;;;;;4975318;28;20575;-80
2023/06/19 03:11:30;;;;;;;7.85;3.38;;;22.90;99.90;;;;;;4983238;28;20535;-80
2023/06/19 03:13:56;;;;;;;8.40;3.20;;;23.00;99.90;;;;;;4975875;28;20468;-80
2023/06/19 03:16:22;;;;;;;7.80;3.20;;;23.00;99.90;;;;;;4973468;28;20400;-80
2023/06/19 03:18:48;;;;;;;6.90;3.10;;;22.80;99.90;;;;;;4972536;28;20596;-80
2023/06/19 03:21:14;;;;;;;7.50;3.03;;;22.70;99.90;;;;;;4953066;28;20477;-80
2023/06/19 03:23:42;;;;;;;7.47;3.10;;;22.80;99.90;;;;;;4951915;29;20402;-80
2023/06/19 03:26:12;;;;;;;8.30;3.67;;;22.90;99.90;;;;;;4969222;28;20403;-80
2023/06/19 03:28:37;;;;;;;9.20;3.40;;;22.90;99.90;;;;;;4971763;28;20396;-80
2023/06/19 03:31:03;;;;;;;9.05;3.75;;;23.00;99.90;;;;;;4970466;28;20427;-80
2023/06/19 03:33:29;;;;;;;7.70;3.10;;;22.90;99.90;;;;;;4970747;28;20802;-80
2023/06/19 03:35:55;;;;;;;9.00;3.50;;;22.90;99.90;;;;;;4970313;28;20408;-80
2023/06/19 03:38:20;;;;;;;8.50;3.47;;;22.70;99.90;;;;;;4950858;28;20434;-80
2023/06/19 03:40:46;;;;;;;7.93;3.00;;;22.70;99.90;;;;;;4956311;28;20463;-80
2023/06/19 03:43:11;;;;;;;7.50;2.57;;;22.70;99.90;;;;;;4968762;28;20458;-80
2023/06/19 03:45:37;;;;;;;6.80;2.40;;;22.60;99.90;;;;;;4964147;28;20882;-80
2023/06/19 03:48:03;;;;;;;7.43;2.97;;;22.70;99.90;;;;;;4963273;28;20402;-80
2023/06/19 03:50:29;;;;;;;7.55;2.67;;;22.80;99.90;;;;;;4964799;28;20418;-80
2023/06/19 03:52:54;;;;;;;7.40;2.70;;;23.00;99.90;;;;;;4970809;28;20407;-80
2023/06/19 03:55:20;;;;;;;8.57;2.70;;;23.10;99.90;;;;;;4973838;28;20501;-80
2023/06/19 03:57:45;;;;;;;6.97;2.63;;;23.00;99.90;;;;;;4973532;28;20404;-80
2023/06/19 04:00:12;;;;;;;7.63;3.00;;;23.00;99.90;;;;;;4973675;28;21020;-80
2023/06/19 04:02:39;;;;;;;7.00;2.35;;;23.00;99.90;;;;;;4972264;28;20412;-80
2023/06/19 04:05:05;;;;;;;8.07;2.40;;;22.90;99.90;;;;;;4973178;28;20438;-80
2023/06/19 04:07:31;;;;;;;8.07;2.40;;;22.90;99.90;;;;;;4966033;28;20396;-80
2023/06/19 04:09:57;;;;;;;7.07;2.40;;;23.00;99.90;;;;;;4956769;28;20401;-80
2023/06/19 04:12:23;;;;;;;6.95;2.45;;;23.00;99.90;;;;;;4970296;28;20753;-80
2023/06/19 04:14:49;;;;;;;7.13;2.40;;;23.10;99.90;;;;;;4956851;28;20385;-80
2023/06/19 04:17:15;;;;;;;7.20;2.40;;;23.10;99.90;;;;;;4954172;29;20405;-76
2023/06/19 04:19:41;;;;;;;10.40;2.30;;;23.00;99.90;;;;;;4964133;28;20417;-76
2023/06/19 04:22:06;;;;;;;6.57;2.03;;;22.90;99.90;;;;;;4953054;28;20779;-76
2023/06/19 04:24:32;;;;;;;7.43;2.43;;;22.80;99.90;;;;;;4956613;28;20416;-76
2023/06/19 04:26:58;;;;;;;7.40;2.37;;;22.70;99.90;;;;;;4971665;28;20408;-76
2023/06/19 04:29:23;;;;;;;6.18;1.90;;;22.50;99.90;;;;;;4953630;29;20386;-76
2023/06/19 04:31:49;;;;;;;6.73;1.90;;;22.40;99.90;;;;;;4963393;28;20392;-76
2023/06/19 04:34:16;;;;;;;7.40;2.40;;;22.30;99.90;;;;;;4971785;28;20435;-76
2023/06/19 04:36:43;;;;;;;6.68;2.10;;;22.30;99.90;;;;;;4967839;28;20458;-74
2023/06/19 04:39:09;;;;;;;6.40;2.38;;;22.10;99.90;;;;;;4954991;28;20418;-75
2023/06/19 04:41:38;;;;;;;8.13;2.30;;;22.10;99.90;;;;;;4952903;28;20477;-73
2023/06/19 04:44:05;;;;;;;6.70;2.10;;;22.10;1.00;;;;;;4963622;28;20417;-75
2023/06/19 04:46:31;;;;;;;6.60;2.10;;;22.20;1.00;;;;;;4953261;28;20765;-76
2023/06/19 04:48:56;;;;;;;6.05;1.98;;;22.20;1.00;;;;;;4963287;28;20451;-76
2023/06/19 04:51:22;;;;;;;6.45;2.00;;;22.50;1.00;;;;;;4954104;28;20456;-76
2023/06/19 04:53:48;;;;;;;6.90;2.13;;;22.50;1.00;;;;;;4952767;28;20755;-76
2023/06/19 04:56:16;;;;;;;5.90;1.90;;;22.60;1.00;;;;;;4962628;28;20488;-76
2023/06/19 04:58:49;;;;;;;6.15;2.03;;;22.90;99.90;;;;;;4955317;28;20919;-76
2023/06/19 05:01:15;;;;;;;6.72;1.90;;;23.30;99.90;;;;;;4967142;28;20434;-76
2023/06/19 05:03:42;;;;;;;6.53;2.20;;;23.70;99.90;;;;;;4958479;28;20822;-76
2023/06/19 05:06:08;;;;;;;7.03;2.10;;;24.10;99.90;;;;;;4962224;28;20406;-76
2023/06/19 05:08:34;;;;;;;6.60;2.00;;;24.70;99.90;;;;;;4953236;28;20891;-76
2023/06/19 05:10:59;;;;;;;7.10;2.13;;;24.90;99.90;;;;;;4955601;28;20794;-84
2023/06/19 05:13:25;;;;;;;8.63;2.03;;;24.80;99.90;;;;;;4963127;28;20400;-81
2023/06/19 05:15:50;;;;;;;6.60;2.30;;;24.60;99.90;;;;;;4975193;28;20403;-81
2023/06/19 05:18:16;;;;;;;6.87;2.00;;;24.80;99.90;;;;;;4975118;28;20536;-81
2023/06/19 05:20:42;;;;;;;7.70;2.10;;;24.90;99.90;;;;;;4974609;28;20471;-82
2023/06/19 05:23:08;;;;;;;7.90;1.90;;;24.50;99.90;;;;;;4974768;28;20428;-81
2023/06/19 05:25:33;;;;;;;6.80;1.98;;;24.60;99.90;;;;;;4975363;28;20399;-81
2023/06/19 05:27:59;;;;;;;6.60;2.00;;;25.10;99.90;;;;;;4970075;28;20488;-81
2023/06/19 05:30:24;;;;;;;7.40;2.45;;;25.20;99.90;;;;;;4957442;28;20390;-81
2023/06/19 05:32:50;;;;;;;7.25;2.30;;;25.10;99.90;;;;;;4970033;28;20892;-81
2023/06/19 05:35:16;;;;;;;9.20;2.55;;;25.10;99.90;;;;;;4973165;28;20806;-80
2023/06/19 05:37:43;;;;;;;6.83;2.03;;;24.90;99.90;;;;;;4960945;28;20939;-80
2023/06/19 05:40:09;;;;;;;7.40;2.40;;;24.80;99.90;;;;;;4954778;29;20895;-81
2023/06/19 05:42:35;;;;;;;6.20;1.97;;;24.60;99.90;;;;;;4973124;28;20420;-81
2023/06/19 05:45:01;;;;;;;7.20;2.05;;;24.70;99.90;;;;;;4973304;28;20940;-81
2023/06/19 05:47:28;;;;;;;6.70;2.20;;;24.80;99.90;;;;;;4973932;28;20447;-81
2023/06/19 05:49:54;;;;;;;6.03;2.03;;;24.90;99.90;;;;;;4974651;28;20467;-81
2023/06/19 05:52:20;;;;;;;7.53;2.90;;;25.00;99.90;;;;;;4974291;28;20920;-81
2023/06/19 05:54:46;;;;;;;8.73;2.60;;;24.80;99.90;;;;;;4973757;28;20505;-81
2023/06/19 05:57:12;;;;;;;11.75;2.40;;;24.80;99.90;;;;;;4973092;28;20405;-81
2023/06/19 05:59:37;;;;;;;7.47;2.70;;;24.80;99.90;;;;;;4973864;28;20416;-81
2023/06/19 06:02:03;;;;;;;7.47;2.53;;;24.50;99.90;;;;;;4974054;28;20455;-81
2023/06/19 06:04:30;;;;;;;7.60;2.25;;;24.60;99.90;;;;;;4970769;28;20416;-81
2023/06/19 06:06:56;;;;;;;6.82;2.40;;;24.90;99.90;;;;;;4975346;28;20415;-81
2023/06/19 06:09:22;;;;;;;8.60;2.45;;;25.00;99.90;;;;;;4967344;28;20404;-81
2023/06/19 06:11:48;;;;;;;6.80;2.10;;;25.10;99.90;;;;;;4974120;28;20404;-81
2023/06/19 06:14:14;;;;;;;6.90;2.37;;;25.50;99.90;;;;;;4974507;28;20404;-81
2023/06/19 06:16:39;;;;;;;6.90;2.40;;;25.50;99.90;;;;;;4974144;28;20396;-80
2023/06/19 06:19:06;;;;;;;6.37;2.20;;;25.90;99.90;;;;;;4973623;28;20439;-79
2023/06/19 06:21:32;;;;;;;7.00;2.30;;;26.40;99.90;;;;;;4974336;28;20882;-79
2023/06/19 06:23:57;;;;;;;6.50;2.10;;;26.40;99.90;;;;;;4954577;29;20409;-79
2023/06/19 06:26:23;;;;;;;6.60;2.50;;;26.70;99.90;;;;;;4954588;29;20410;-79
2023/06/19 06:28:48;;;;;;;7.37;2.47;;;27.00;99.90;;;;;;4959272;29;20430;-80
2023/06/19 06:31:14;;;;;;;7.30;2.10;;;27.10;99.90;;;;;;4956880;29;20414;-80
2023/06/19 06:33:40;;;;;;;7.97;2.50;;;27.20;99.90;;;;;;4956304;29;20405;-80
2023/06/19 06:36:05;;;;;;;8.13;2.23;;;27.30;99.90;;;;;;4956783;28;20402;-80
2023/06/19 06:38:31;;;;;;;8.40;2.50;;;27.60;99.90;;;;;;4954635;29;20390;-81
2023/06/19 06:40:56;;;;;;;6.60;2.30;;;27.40;99.90;;;;;;4975012;28;20439;-80
2023/06/19 06:43:22;;;;;;;6.90;2.50;;;27.60;99.90;;;;;;4975125;28;20404;-80
2023/06/19 06:45:47;;;;;;;6.45;2.30;;;28.40;99.90;;;;;;4976811;28;20485;-80
2023/06/19 06:48:13;;;;;;;7.10;2.40;;;29.30;99.90;;;;;;4975408;28;20384;-80
2023/06/19 06:50:39;;;;;;;6.80;2.60;;;29.90;99.90;;;;;;4974974;28;20730;-80
2023/06/19 06:53:04;;;;;;;6.90;2.37;;;29.60;99.90;;;;;;4974877;28;20400;-80
2023/06/19 06:55:29;;;;;;;7.90;2.90;;;29.80;99.90;;;;;;4975476;28;20396;-83
2023/06/19 06:57:55;;;;;;;7.32;2.50;;;29.60;99.90;;;;;;4975036;28;20471;-83
2023/06/19 07:00:22;;;;;;;7.10;2.50;;;29.90;99.90;;;;;;4974977;28;20439;-83
2023/06/19 07:02:50;;;;;;;7.55;2.63;;;30.00;99.90;;;;;;4974651;28;20925;-81
2023/06/19 07:05:15;;;;;;;7.60;2.38;;;29.10;99.90;;;;;;4975182;28;20397;-81
2023/06/19 07:07:41;;;;;;;7.70;2.20;;;28.50;99.90;;;;;;4973535;28;20419;-81
2023/06/19 07:10:07;;;;;;;7.10;2.30;;;28.20;99.90;;;;;;4974755;28;20392;-80
2023/06/19 07:12:33;;;;;;;7.15;2.40;;;27.80;99.90;;;;;;4975723;28;20381;-80
2023/06/19 07:14:59;;;;;;;6.68;2.00;;;27.00;99.90;;;;;;4974710;28;20405;-80
2023/06/19 07:17:24;;;;;;;6.90;2.20;;;26.70;99.90;;;;;;4974483;28;20404;-80
2023/06/19 07:19:50;;;;;;;7.30;2.70;;;26.60;99.90;;;;;;4974027;28;20461;-80
2023/06/19 07:22:16;;;;;;;6.83;2.57;;;27.00;99.90;;;;;;4975428;28;20402;-81
2023/06/19 07:24:42;;;;;;;8.00;2.60;;;27.60;99.90;;;;;;4974391;28;20416;-81
2023/06/19 07:27:07;;;;;;;7.45;2.40;;;28.80;99.90;;;;;;4974470;28;20908;-81
2023/06/19 07:29:33;;;;;;;7.17;2.77;;;30.30;99.90;;;;;;4974889;28;20392;-81
2023/06/19 07:32:00;;;;;;;6.30;2.27;;;31.60;99.90;;;;;;4973086;28;20490;-81
2023/06/19 07:34:26;;;;;;;6.57;2.20;;;31.00;99.90;;;;;;4973651;28;20427;-81
2023/06/19 07:36:51;;;;;;;7.00;2.50;;;30.40;99.90;;;;;;4974754;28;20416;-81
2023/06/19 07:39:17;;;;;;;7.30;2.17;;;31.10;99.90;;;;;;4974692;28;20475;-81
2023/06/19 07:41:42;;;;;;;8.07;2.60;;;31.50;99.90;;;;;;4974166;28;20500;-81
2023/06/19 07:44:08;;;;;;;6.20;2.50;;;31.30;99.90;;;;;;4974671;28;20415;-81
2023/06/19 07:46:34;;;;;;;8.50;2.65;;;31.60;99.90;;;;;;4973777;28;20498;-80
2023/06/19 07:48:59;;;;;;;7.50;2.10;;;30.70;99.90;;;;;;4973592;28;20404;-80
2023/06/19 07:51:25;;;;;;;6.33;2.20;;;29.90;99.90;;;;;;4974508;28;20469;-80
2023/06/19 07:53:50;;;;;;;7.63;2.47;;;30.10;99.90;;;;;;4973394;28;20391;-80
2023/06/19 07:56:16;;;;;;;6.72;2.40;;;31.20;99.90;;;;;;4974267;28;20901;-81
2023/06/19 07:58:41;;;;;;;7.00;2.20;;;32.30;99.90;;;;;;4980904;28;20440;-81
2023/06/19 08:01:07;;;;;;;6.43;2.47;;;32.80;99.90;;;;;;4977067;28;20432;-81
2023/06/19 08:03:32;;;;;;;7.40;2.50;;;33.00;99.90;;;;;;4975173;28;20404;-81
2023/06/19 08:05:58;;;;;;;6.10;2.10;;;33.30;99.90;;;;;;4974998;28;20391;-81
2023/06/19 08:08:24;;;;;;;6.73;2.30;;;32.90;99.90;;;;;;4975567;28;20868;-81
2023/06/19 08:10:49;;;;;;;6.63;3.00;;;33.90;99.90;;;;;;4976128;28;20403;-81
2023/06/19 08:13:16;;;;;;;6.35;2.60;;;34.50;99.90;;;;;;4975201;28;20404;-81
2023/06/19 08:15:42;;;;;;;6.50;2.63;;;34.90;99.90;;;;;;4975891;28;20758;-81
2023/06/19 08:18:07;;;;;;;8.57;2.60;;;34.80;99.90;;;;;;4976237;28;20408;-81
2023/06/19 08:20:33;;;;;;;8.45;2.75;;;34.50;99.90;;;;;;4977219;28;20449;-81
2023/06/19 08:22:58;;;;;;;6.67;2.30;;;34.80;99.90;;;;;;4974734;28;20802;-81
2023/06/19 08:25:25;;;;;;;7.03;2.63;;;34.70;99.90;;;;;;4976444;28;20408;-81
2023/06/19 08:27:50;;;;;;;6.00;2.33;;;34.00;99.90;;;;;;4974575;28;20464;-80
2023/06/19 08:30:16;;;;;;;7.17;2.70;;;34.00;99.90;;;;;;4977329;28;20495;-81
2023/06/19 08:32:44;;;;;;;6.63;2.93;;;34.40;99.90;;;;;;4977113;28;20503;-81
2023/06/19 08:35:09;;;;;;;8.00;3.10;;;34.80;99.90;;;;;;4978904;28;20502;-81
2023/06/19 08:37:35;;;;;;;8.53;2.50;;;34.50;99.90;;;;;;4979173;28;20484;-81
2023/06/19 08:40:00;;;;;;;7.43;2.60;;;34.70;99.90;;;;;;4978109;28;20451;-81
2023/06/19 08:42:26;;;;;;;6.43;2.10;;;34.90;99.90;;;;;;4979974;28;20408;-81
2023/06/19 08:44:53;;;;;;;10.20;2.60;;;35.30;99.90;;;;;;4979427;28;20388;-81
2023/06/19 08:47:18;;;;;;;6.20;1.90;;;35.90;99.90;;;;;;4978562;28;20919;-81
2023/06/19 08:49:44;;;;;;;6.43;2.60;;;36.80;99.90;;;;;;4979672;28;20396;-81
2023/06/19 08:52:09;;;;;;;6.40;2.20;;;37.30;99.90;;;;;;4979994;28;20445;-81
2023/06/19 08:54:43;;;;;;;6.90;2.50;;;36.80;99.90;;;;;;4978039;28;20920;-81
2023/06/19 08:57:09;;;;;;;7.10;2.30;;;35.30;99.90;;;;;;4976879;28;20498;-81
2023/06/19 08:59:35;;;;;;;10.10;2.58;;;35.90;99.90;;;;;;4977751;28;20423;-81
2023/06/19 09:02:00;;;;;;;6.80;2.10;;;36.00;99.90;;;;;;4977797;28;20482;-81
2023/06/19 09:04:27;;;;;;;6.23;2.50;;;36.20;99.90;;;;;;4985018;28;20388;-81
2023/06/19 09:06:53;;;;;;;8.50;2.60;;;36.80;99.90;;;;;;4996689;28;20408;-82
2023/06/19 09:09:20;;;;;;;8.05;3.45;;;37.50;99.90;;;;;;4995748;28;20388;-82
2023/06/19 09:12:01;;;;;;;6.40;2.40;;;38.60;99.90;;;;;;4995822;28;20396;-82
2023/06/19 09:14:38;;;;;;;7.60;2.80;;;39.60;99.90;;;;;;4976576;28;20377;-82
2023/06/19 09:17:10;;;;;;;7.35;3.10;;;39.70;99.90;;;;;;4976194;28;20398;-82
2023/06/19 09:19:35;;;;;;;6.25;2.20;;;39.00;99.90;;;;;;4976077;28;20438;-82
2023/06/19 09:22:07;;;;;;;7.10;3.00;;;37.90;99.90;;;;;;4975822;29;20433;-82
2023/06/19 09:24:40;;;;;;;6.70;2.58;;;37.60;99.90;;;;;;4976713;28;20393;-81
2023/06/19 09:27:13;;;;;;;7.20;2.87;;;37.70;99.90;;;;;;4976538;28;20402;-81
2023/06/19 09:29:41;;;;;;;7.10;2.70;;;37.90;99.90;;;;;;4982301;28;20395;-81
2023/06/19 09:32:17;;;;;;;7.17;2.70;;;38.10;99.90;;;;;;4995557;28;20428;-81
2023/06/19 09:34:43;;;;;;;6.72;3.40;;;38.60;99.90;;;;;;4995816;28;20412;-82
2023/06/19 09:37:09;;;;;;;8.63;3.30;;;39.10;99.90;;;;;;4995880;28;20400;-82
2023/06/19 09:39:37;;;;;;;7.10;2.80;;;39.30;99.90;;;;;;4995625;28;20422;-82
2023/06/19 09:42:05;;;;;;;7.90;3.20;;;39.10;99.90;;;;;;4996239;28;20439;-82
2023/06/19 09:44:36;;;;;;;7.25;2.70;;;39.70;99.90;;;;;;4995562;28;20395;-82
2023/06/19 09:47:06;;;;;;;7.60;2.75;;;39.80;99.90;;;;;;4997050;28;20385;-82
2023/06/19 09:49:34;;;;;;;7.90;3.40;;;38.10;99.90;;;;;;4996848;28;20461;-81
2023/06/19 09:51:59;;;;;;;6.70;2.60;;;38.70;99.90;;;;;;4996591;28;20386;-81
2023/06/19 09:54:26;;;;;;;8.00;3.60;;;39.00;99.90;;;;;;4997010;28;20408;-81
2023/06/19 09:56:55;;;;;;;8.70;3.30;;;38.80;99.90;;;;;;4996157;28;20407;-81
2023/06/19 09:59:22;;;;;;;7.50;2.60;;;38.00;99.90;;;;;;4996530;28;20380;-81
2023/06/19 10:01:49;;;;;;;8.50;2.80;;;37.30;99.90;;;;;;4996201;28;20439;-81
2023/06/19 10:04:16;;;;;;;10.30;4.13;;;36.20;99.90;;;;;;4996226;28;20416;-81
2023/06/19 10:06:46;;;;;;;8.40;3.50;;;36.70;99.90;;;;;;4996594;28;20504;-82
2023/06/19 10:09:14;;;;;;;7.33;3.10;;;37.30;99.90;;;;;;4996089;28;20392;-81
2023/06/19 10:11:53;;;;;;;8.45;3.40;;;36.60;99.90;;;;;;4996484;28;20384;-81
2023/06/19 10:14:20;;;;;;;7.60;3.00;;;36.00;99.90;;;;;;4995376;28;20404;-81
2023/06/19 10:16:46;;;;;;;6.90;2.80;;;36.10;99.90;;;;;;4994198;28;20392;-81
2023/06/19 10:19:13;;;;;;;8.20;2.80;;;36.40;99.90;;;;;;4993700;28;20391;-81
2023/06/19 10:21:50;;;;;;;6.85;2.63;;;37.40;99.90;;;;;;4992818;28;20403;-81
2023/06/19 10:24:19;;;;;;;7.75;2.90;;;38.00;99.90;;;;;;4993178;28;20428;-81
2023/06/19 10:27:02;;;;;;;7.57;3.00;;;37.90;99.90;;;;;;4994493;28;20415;-81
2023/06/19 10:29:57;;;;;;;7.10;3.10;;;36.90;99.90;;;;;;4992758;28;20439;-81
2023/06/19 10:32:23;;;;;;;7.10;2.60;;;36.70;99.90;;;;;;4974318;28;20417;-81
2023/06/19 10:34:48;;;;;;;7.40;2.80;;;35.40;99.90;;;;;;4975934;28;20445;-81
2023/06/19 10:37:15;;;;;;;6.77;2.70;;;34.40;99.90;;;;;;4973433;28;20401;-81
2023/06/19 10:39:43;;;;;;;7.35;3.05;;;33.80;99.90;;;;;;4972381;28;20422;-81
2023/06/19 10:42:10;;;;;;;6.72;2.60;;;33.20;99.90;;;;;;4982904;28;20416;-80
2023/06/19 10:44:37;;;;;;;8.02;2.80;;;33.00;99.90;;;;;;4988679;28;20396;-80
2023/06/19 10:47:04;;;;;;;8.27;3.03;;;32.70;99.90;;;;;;4989736;28;20408;-82
2023/06/19 10:49:29;;;;;;;7.00;2.40;;;31.50;99.90;;;;;;4991056;28;20420;-82
2023/06/19 10:51:58;;;;;;;7.63;2.57;;;31.40;99.90;;;;;;4992423;28;20396;-82
2023/06/19 10:54:25;;;;;;;6.70;2.60;;;31.90;99.90;;;;;;4990579;28;20463;-82
2023/06/19 10:56:51;;;;;;;8.70;2.65;;;32.40;99.90;;;;;;4989393;28;20411;-81
2023/06/19 10:59:21;;;;;;;7.50;2.95;;;32.70;99.90;;;;;;4988615;28;20408;-80
2023/06/19 11:01:50;;;;;;;8.70;3.30;;;32.90;99.90;;;;;;4985846;28;20555;-82
2023/06/19 11:04:16;;;;;;;7.57;3.17;;;32.90;99.90;;;;;;4968191;28;20393;-81
2023/06/19 11:06:43;;;;;;;7.88;2.90;;;32.90;99.90;;;;;;4986485;28;20415;-81
2023/06/19 11:09:10;;;;;;;8.00;3.10;;;33.00;99.90;;;;;;4984230;28;20811;-81
2023/06/19 11:11:46;;;;;;;7.50;3.08;;;32.50;99.90;;;;;;4984588;28;20416;-82
2023/06/19 11:14:13;;;;;;;8.38;2.88;;;32.60;99.90;;;;;;4985555;28;20404;-82
2023/06/19 11:16:41;;;;;;;7.45;2.50;;;33.00;99.90;;;;;;4984613;28;20407;-82
2023/06/19 11:19:20;;;;;;;9.95;3.20;;;33.40;99.90;;;;;;4985300;28;20455;-82
2023/06/19 11:21:48;;;;;;;7.60;3.10;;;33.30;99.90;;;;;;4967797;28;20425;-82
2023/06/19 11:24:15;;;;;;;8.65;3.10;;;33.30;99.90;;;;;;4985045;28;20404;-82
2023/06/19 11:26:50;;;;;;;7.82;2.78;;;33.70;99.90;;;;;;4984823;28;20401;-82
2023/06/19 11:29:24;;;;;;;7.63;3.20;;;33.10;99.90;;;;;;4984976;28;20392;-82
2023/06/19 11:31:53;;;;;;;8.48;3.30;;;32.90;99.90;;;;;;4967976;28;20399;-82
2023/06/19 11:34:19;;;;;;;8.23;3.10;;;33.00;99.90;;;;;;4946991;29;20458;-82
2023/06/19 11:36:44;;;;;;;7.38;3.30;;;32.70;99.90;;;;;;4955482;29;20429;-82
2023/06/19 11:39:14;;;;;;;8.88;3.47;;;32.70;99.90;;;;;;4967611;29;20405;-81
2023/06/19 11:41:41;;;;;;;7.38;2.65;;;32.80;99.90;;;;;;4966889;29;20432;-82
2023/06/19 11:44:09;;;;;;;7.32;3.03;;;33.00;99.90;;;;;;4948385;29;20431;-82
2023/06/19 11:46:35;;;;;;;7.70;3.20;;;33.10;99.90;;;;;;4962562;29;20398;-82
2023/06/19 11:49:14;;;;;;;6.53;2.60;;;33.30;99.90;;;;;;4955408;29;20495;-83
2023/06/19 11:51:41;;;;;;;7.65;2.97;;;33.30;99.90;;;;;;4939058;29;20416;-82
2023/06/19 11:54:08;;;;;;;7.22;3.30;;;33.00;99.90;;;;;;4933883;29;20430;-81
2023/06/19 11:56:38;;;;;;;7.93;3.30;;;33.20;99.90;;;;;;4966138;29;20468;-81
2023/06/19 11:59:04;;;;;;;8.40;3.23;;;33.50;99.90;;;;;;4971427;29;20398;-82
2023/06/19 12:01:32;;;;;;;7.30;2.90;;;33.50;99.90;;;;;;4975948;28;20418;-82
2023/06/19 12:03:58;;;;;;;8.50;3.22;;;33.70;99.90;;;;;;4976149;28;20420;-82
2023/06/19 12:06:24;;;;;;;7.50;3.40;;;33.70;99.90;;;;;;4976530;28;20425;-82
2023/06/19 12:08:49;;;;;;;8.02;3.00;;;33.40;99.90;;;;;;4986518;28;20415;-82
2023/06/19 12:11:15;;;;;;;11.18;3.70;;;33.30;99.90;;;;;;4989977;28;20400;-82
2023/06/19 12:13:41;;;;;;;8.77;3.60;;;33.20;99.90;;;;;;4990419;28;20398;-81
2023/06/19 12:16:07;;;;;;;7.70;3.15;;;33.40;99.90;;;;;;4985669;28;20408;-82
2023/06/19 12:18:33;;;;;;;9.70;3.43;;;33.00;99.90;;;;;;4979745;28;20415;-81
2023/06/19 12:20:59;;;;;;;8.60;2.90;;;32.60;99.90;;;;;;4976225;28;20420;-81
2023/06/19 12:23:24;;;;;;;8.60;3.20;;;31.90;99.90;;;;;;4970599;28;20401;-81
2023/06/19 12:25:50;;;;;;;6.95;2.90;;;32.00;99.90;;;;;;4956986;29;20456;-81
2023/06/19 12:28:18;;;;;;;7.40;3.28;;;31.80;99.90;;;;;;4965939;28;20444;-81
2023/06/19 12:30:45;;;;;;;8.60;3.40;;;31.70;99.90;;;;;;4976959;28;20404;-81
2023/06/19 12:33:11;;;;;;;7.53;3.38;;;31.60;99.90;;;;;;4976410;28;20945;-82
2023/06/19 12:35:44;;;;;;;7.03;2.70;;;31.80;99.90;;;;;;4973680;28;20395;-81
2023/06/19 12:38:10;;;;;;;7.73;3.37;;;32.20;99.90;;;;;;4975156;28;20406;-81
2023/06/19 12:40:38;;;;;;;7.20;3.40;;;32.80;99.90;;;;;;4975526;28;20751;-81
2023/06/19 12:43:04;;;;;;;7.55;3.45;;;32.90;99.90;;;;;;4977312;28;20449;-81